PWSweather.com
Personal Weather Stations
Station Observations
METEOSOB
BrnoSobesiceCZ 644 00

BrnoSobesiceCZ 644 00

Lat: 49.2538513, Lon: 16.623951000000034

Elevation: 374

Station Type: WH 1080

http://meteo-jn.cz

Latest ConditionsUpdated 9:45:01 AM GMT+01:01 Sunday, Feb 18, 2018
Currently Today's Max Today's Min Today's Average
Temperature 32.5°F0.3°C 32.5°F0.3°C 28.9°F-1.7°C 30.7°F-0.7°C
Dew Point 28.0°F-2.2°C 28.3°F-2.1°C 25.6°F-3.6°C 27.3°F-2.6°C
Winds 1.4 mph N2.3 kmh N 3.8 mph NE6.1 kmh NE - 2.0 mph 3.2 kmh
Wind Gusts 4.5 mph7.2 kmh 9.8 mph15.8 kmh - -
Humidity 83% 89% 83% 87%
Pressure 30.29 in1025.7 mb 30.29 in1025.7 mb 30.17 in1021.7 mb -
Precipitation - 0.01 in0.3 mm - -
Hour Temp Dew Point Humidity Winds Wind Gusts Pressure Precip Precip Rate Daily Precip Total
09:45 AM 32.5°F0.3°C 28.0°F-2.2°C 83% 1.4 mph N2.3 kmh N 4.5 mph7.2 kmh 30.29 in1025.7 mb 0.00 in0.0 mm 0.00 in0.0 mm 0.01 in0.3 mm
09:30 AM 32.5°F0.3°C 28.0°F-2.2°C 83% 1.4 mph N2.3 kmh N 4.5 mph7.2 kmh 30.29 in1025.7 mb 0.00 in0.0 mm 0.00 in0.0 mm 0.01 in0.3 mm
09:15 AM 32.2°F0.1°C 27.9°F-2.3°C 84% 2.5 mph N4.0 kmh N 5.4 mph8.7 kmh 30.29 in1025.7 mb 0.00 in0.0 mm 0.00 in0.0 mm 0.01 in0.3 mm
09:00 AM 31.8°F-0.1°C 27.8°F-2.3°C 85% 1.5 mph N2.4 kmh N 5.4 mph8.7 kmh 30.29 in1025.7 mb 0.00 in0.0 mm 0.00 in0.0 mm 0.01 in0.3 mm
08:45 AM 31.5°F-0.3°C 27.5°F-2.5°C 85% 2.2 mph N3.5 kmh N 6.0 mph9.7 kmh 30.28 in1025.4 mb 0.00 in0.0 mm 0.00 in0.0 mm 0.01 in0.3 mm
08:30 AM 31.3°F-0.4°C 27.6°F-2.4°C 86% 1.0 mph NNE1.6 kmh NNE 5.4 mph8.7 kmh 30.28 in1025.4 mb 0.00 in0.0 mm 0.00 in0.0 mm 0.01 in0.3 mm
08:15 AM 31.1°F-0.5°C 27.4°F-2.6°C 86% 1.6 mph N2.6 kmh N 5.4 mph8.7 kmh 30.27 in1025.1 mb 0.00 in0.0 mm 0.00 in0.0 mm 0.01 in0.3 mm
08:00 AM 30.7°F-0.7°C 27.1°F-2.7°C 86% 2.8 mph N4.5 kmh N 6.9 mph11.1 kmh 30.27 in1025.1 mb 0.00 in0.0 mm 0.00 in0.0 mm 0.01 in0.3 mm
07:45 AM 30.2°F-1.0°C 26.5°F-3.1°C 86% 3.4 mph N5.5 kmh N 8.3 mph13.4 kmh 30.27 in1025.1 mb 0.00 in0.0 mm 0.00 in0.0 mm 0.01 in0.3 mm
07:30 AM 30.0°F-1.1°C 26.4°F-3.1°C 86% 3.6 mph N5.8 kmh N 9.2 mph14.8 kmh 30.27 in1025.1 mb 0.00 in0.0 mm 0.00 in0.0 mm 0.01 in0.3 mm
07:15 AM 29.5°F-1.4°C 26.1°F-3.3°C 87% 2.9 mph N4.7 kmh N 7.6 mph12.2 kmh 30.26 in1024.7 mb 0.00 in0.0 mm 0.00 in0.0 mm 0.01 in0.3 mm
07:00 AM 28.9°F-1.7°C 25.6°F-3.6°C 87% 2.4 mph NNW3.9 kmh NNW 8.3 mph13.4 kmh 30.26 in1024.7 mb 0.00 in0.0 mm 0.00 in0.0 mm 0.01 in0.3 mm
06:45 AM 28.9°F-1.7°C 25.6°F-3.6°C 87% 2.7 mph NNW4.3 kmh NNW 6.9 mph11.1 kmh 30.25 in1024.4 mb 0.00 in0.0 mm 0.00 in0.0 mm 0.01 in0.3 mm
06:30 AM 29.1°F-1.6°C 25.8°F-3.4°C 87% 1.7 mph NNW2.7 kmh NNW 5.4 mph8.7 kmh 30.24 in1024.0 mb 0.00 in0.0 mm 0.00 in0.0 mm 0.01 in0.3 mm
06:15 AM 29.3°F-1.5°C 25.9°F-3.4°C 87% 1.8 mph NW2.9 kmh NW 4.5 mph7.2 kmh 30.24 in1024.0 mb 0.00 in0.0 mm 0.00 in0.0 mm 0.01 in0.3 mm
06:00 AM 29.5°F-1.4°C 26.1°F-3.3°C 87% 2.4 mph NW3.9 kmh NW 6.9 mph11.1 kmh 30.23 in1023.7 mb 0.00 in0.0 mm 0.00 in0.0 mm 0.01 in0.3 mm
05:45 AM 29.7°F-1.3°C 26.3°F-3.2°C 87% 1.3 mph NW2.1 kmh NW 5.4 mph8.7 kmh 30.23 in1023.7 mb 0.00 in0.0 mm 0.00 in0.0 mm 0.01 in0.3 mm
05:30 AM 30.0°F-1.1°C 26.6°F-3.0°C 87% 0.7 mph NW1.1 kmh NW 3.8 mph6.1 kmh 30.22 in1023.4 mb 0.00 in0.0 mm 0.00 in0.0 mm 0.01 in0.3 mm
05:15 AM 30.4°F-0.9°C 27.0°F-2.8°C 87% 0.9 mph NNW1.4 kmh NNW 3.1 mph5.0 kmh 30.22 in1023.4 mb 0.00 in0.0 mm 0.00 in0.0 mm 0.01 in0.3 mm
05:00 AM 30.4°F-0.9°C 27.0°F-2.8°C 87% 1.4 mph NNW2.3 kmh NNW 5.4 mph8.7 kmh 30.22 in1023.4 mb 0.00 in0.0 mm 0.00 in0.0 mm 0.01 in0.3 mm
04:45 AM 30.6°F-0.8°C 27.2°F-2.7°C 87% 2.3 mph NW3.7 kmh NW 7.6 mph12.2 kmh 30.22 in1023.4 mb 0.00 in0.0 mm 0.00 in0.0 mm 0.01 in0.3 mm
04:30 AM 30.6°F-0.8°C 27.2°F-2.7°C 87% 1.9 mph N3.1 kmh N 6.0 mph9.7 kmh 30.21 in1023.0 mb 0.00 in0.0 mm 0.00 in0.0 mm 0.01 in0.3 mm
04:15 AM 30.7°F-0.7°C 27.3°F-2.6°C 87% 1.8 mph N2.9 kmh N 6.9 mph11.1 kmh 30.21 in1023.0 mb 0.00 in0.0 mm 0.00 in0.0 mm 0.01 in0.3 mm
04:00 AM 31.1°F-0.5°C 27.7°F-2.4°C 87% 1.2 mph NW1.9 kmh NW 4.5 mph7.2 kmh 30.21 in1023.0 mb 0.00 in0.0 mm 0.00 in0.0 mm 0.01 in0.3 mm
03:45 AM 31.3°F-0.4°C 28.2°F-2.1°C 88% 1.2 mph N1.9 kmh N 5.4 mph8.7 kmh 30.21 in1023.0 mb 0.00 in0.0 mm 0.00 in0.0 mm 0.01 in0.3 mm
03:30 AM 30.9°F-0.6°C 27.8°F-2.3°C 88% 1.9 mph NNE3.1 kmh NNE 6.9 mph11.1 kmh 30.21 in1023.0 mb 0.00 in0.0 mm 0.00 in0.0 mm 0.01 in0.3 mm
03:15 AM 30.9°F-0.6°C 27.8°F-2.3°C 88% 0.8 mph N1.3 kmh N 5.4 mph8.7 kmh 30.20 in1022.7 mb 0.01 in0.3 mm 0.00 in0.0 mm 0.01 in0.3 mm
03:00 AM 30.9°F-0.6°C 28.1°F-2.2°C 89% 0.6 mph N1.0 kmh N 5.4 mph8.7 kmh 30.20 in1022.7 mb 0.01 in0.3 mm 0.00 in0.0 mm 0.01 in0.3 mm
02:45 AM 30.9°F-0.6°C 28.1°F-2.2°C 89% 1.6 mph N2.6 kmh N 6.9 mph11.1 kmh 30.20 in1022.7 mb 0.01 in0.3 mm 0.00 in0.0 mm 0.01 in0.3 mm
02:30 AM 30.9°F-0.6°C 28.1°F-2.2°C 89% 2.2 mph N3.5 kmh N 6.0 mph9.7 kmh 30.19 in1022.4 mb 0.01 in0.3 mm 0.04 in1.0 mm 0.01 in0.3 mm
02:15 AM 30.9°F-0.6°C 28.1°F-2.2°C 89% 1.9 mph N3.1 kmh N 5.4 mph8.7 kmh 30.19 in1022.4 mb 0.00 in0.0 mm 0.00 in0.0 mm 0.00 in0.0 mm
02:00 AM 31.1°F-0.5°C 28.3°F-2.1°C 89% 1.4 mph N2.3 kmh N 4.5 mph7.2 kmh 30.19 in1022.4 mb 0.00 in0.0 mm 0.00 in0.0 mm 0.00 in0.0 mm
01:45 AM 31.1°F-0.5°C 28.3°F-2.1°C 89% 1.8 mph NNE2.9 kmh NNE 6.9 mph11.1 kmh 30.19 in1022.4 mb 0.00 in0.0 mm 0.00 in0.0 mm 0.00 in0.0 mm
01:30 AM 31.1°F-0.5°C 28.0°F-2.2°C 88% 2.3 mph NNE3.7 kmh NNE 6.9 mph11.1 kmh 30.18 in1022.0 mb 0.00 in0.0 mm 0.00 in0.0 mm 0.00 in0.0 mm
01:15 AM 31.1°F-0.5°C 28.0°F-2.2°C 88% 2.5 mph NNE4.0 kmh NNE 5.4 mph8.7 kmh 30.18 in1022.0 mb 0.00 in0.0 mm 0.00 in0.0 mm 0.00 in0.0 mm
01:00 AM 31.1°F-0.5°C 28.0°F-2.2°C 88% 2.7 mph NE4.3 kmh NE 6.9 mph11.1 kmh 30.18 in1022.0 mb 0.00 in0.0 mm 0.00 in0.0 mm 0.00 in0.0 mm
12:45 AM 30.9°F-0.6°C 27.8°F-2.3°C 88% 3.6 mph NE5.8 kmh NE 9.8 mph15.8 kmh 30.17 in1021.7 mb 0.00 in0.0 mm 0.00 in0.0 mm 0.00 in0.0 mm
12:30 AM 30.9°F-0.6°C 27.8°F-2.3°C 88% 3.8 mph NE6.1 kmh NE 8.3 mph13.4 kmh 30.18 in1022.0 mb 0.00 in0.0 mm 0.00 in0.0 mm 0.00 in0.0 mm
12:15 AM 31.3°F-0.4°C 28.2°F-2.1°C 88% 3.2 mph NE5.1 kmh NE 6.9 mph11.1 kmh 30.17 in1021.7 mb 0.00 in0.0 mm 0.00 in0.0 mm 0.00 in0.0 mm
12:00 AM 29.8°F-1.2°C 27.0°F-2.8°C 89% 3.2 mph NE5.1 kmh NE 6.0 mph9.7 kmh 30.17 in1021.7 mb 0.00 in0.0 mm 0.00 in0.0 mm 0.00 in0.0 mm